Alexander, North Dakota
Current Conditions -  °F | °C
As of 6:52 AM on Wednesday 22 Oct 2014 (Local Time) from KISN Reporting Station
Few Clouds Few Clouds  
Wind Chill: 51°   Ceiling: Unl
Heat Index: 51°   Visibility: 10mi
Dew Point: 43°   Wind: 12mph
Humidity: 74%   Direction: 260°W
Pressure: 29.79"   Gusts: 22mph
Location:  47.84°N, 103.64°W
Report Text: KISN 221152Z AUTO 26010G19KT 10SM FEW120 11/06 A2979 RMK AO2 PK WND 24026/1111 SLP087 60000 T01060061 10156 20106 53034
Loading
Personal Weather Stations






























Interactive Weather Map
Tropical Storm Tracking
New forecast layout! Learn more

10-Day Weather Forecast

Advertisements
Track Severe Weather on mobile